createdAt,value
2019-03-03T00:00:40.270Z,100962.96
2019-03-03T00:03:08.929Z,100960.53
2019-03-03T00:05:37.571Z,100962.13
2019-03-03T00:08:06.262Z,100946.13
2019-03-03T00:10:34.878Z,100961.22
2019-03-03T00:13:03.456Z,100948.45
2019-03-03T00:15:32.097Z,100960.42
2019-03-03T00:18:00.982Z,100958.31
2019-03-03T00:20:29.536Z,100950.93
2019-03-03T00:22:59.911Z,100948.58
2019-03-03T00:25:29.296Z,100941.91
2019-03-03T00:27:57.938Z,100946.22
2019-03-03T00:30:26.561Z,100943.78
2019-03-03T00:32:55.087Z,100944.06
2019-03-03T00:35:23.759Z,100945.63
2019-03-03T00:38:11.980Z,100941.28
2019-03-03T00:40:58.472Z,100937.77
2019-03-03T00:43:28.668Z,100938.20
2019-03-03T00:46:01.332Z,100940.68
2019-03-03T00:48:31.594Z,100931.46
2019-03-03T00:51:01.860Z,100932.73
2019-03-03T00:53:48.386Z,100929.38
2019-03-03T00:56:21.457Z,100924.36
2019-03-03T00:58:57.700Z,100923.00
2019-03-03T01:01:30.700Z,100914.01
2019-03-03T01:04:01.447Z,100918.72
2019-03-03T01:06:34.372Z,100914.09
2019-03-03T01:09:06.252Z,100909.38
2019-03-03T01:11:39.367Z,100909.42
2019-03-03T01:14:22.007Z,100901.28
2019-03-03T01:16:57.993Z,100891.97
2019-03-03T01:19:28.286Z,100893.12
2019-03-03T01:22:11.641Z,100890.00
2019-03-03T01:24:44.548Z,100896.00
2019-03-03T01:27:13.417Z,100882.58
2019-03-03T01:29:42.026Z,100883.05
2019-03-03T01:32:10.537Z,100892.00
2019-03-03T01:34:39.208Z,100876.83
2019-03-03T01:37:07.773Z,100873.71
2019-03-03T01:39:36.387Z,100873.20
2019-03-03T01:42:04.966Z,100861.46
2019-03-03T01:44:33.593Z,100863.59
2019-03-03T01:47:02.141Z,100866.92
2019-03-03T01:49:30.804Z,100860.56
2019-03-03T01:51:59.570Z,100853.96
2019-03-03T01:54:28.283Z,100857.77
2019-03-03T01:56:56.954Z,100853.69
2019-03-03T01:59:25.547Z,100855.80
2019-03-03T02:01:54.169Z,100852.95
2019-03-03T02:04:22.749Z,100840.08
2019-03-03T02:06:51.549Z,100822.90
2019-03-03T02:09:20.425Z,100832.63
2019-03-03T02:11:49.027Z,100822.41
2019-03-03T02:14:17.652Z,100813.48
2019-03-03T02:19:25.069Z,100794.92
2019-03-03T02:21:53.540Z,100789.62
2019-03-03T02:24:22.179Z,100783.81
2019-03-03T02:26:50.800Z,100782.37
2019-03-03T02:29:19.383Z,100779.89
2019-03-03T02:31:47.990Z,100784.95
2019-03-03T02:34:16.689Z,100788.27
2019-03-03T02:36:45.313Z,100782.69
2019-03-03T02:39:15.856Z,100784.70
2019-03-03T02:41:44.524Z,100761.22
2019-03-03T02:44:13.231Z,100766.64
2019-03-03T02:46:41.813Z,100764.38
2019-03-03T02:49:10.454Z,100780.59
2019-03-03T02:51:38.963Z,100763.45
2019-03-03T02:54:07.528Z,100775.58
2019-03-03T02:56:36.175Z,100772.30
2019-03-03T02:59:05.064Z,100769.50
2019-03-03T03:01:35.303Z,100764.81
2019-03-03T03:04:03.928Z,100768.00
2019-03-03T03:06:36.909Z,100765.14
2019-03-03T03:09:09.091Z,100762.52
2019-03-03T03:11:51.672Z,100752.13
2019-03-03T03:14:21.856Z,100759.71
2019-03-03T03:16:54.756Z,100744.92
2019-03-03T03:19:24.986Z,100747.88
2019-03-03T03:21:55.276Z,100756.19
2019-03-03T03:24:34.481Z,100747.30
2019-03-03T03:27:07.552Z,100749.55
2019-03-03T03:29:43.962Z,100741.49
2019-03-03T03:32:20.461Z,100736.30
2019-03-03T03:35:07.175Z,100741.08
2019-03-03T03:37:40.093Z,100739.11
2019-03-03T03:40:27.288Z,100729.09
2019-03-03T03:42:57.499Z,100746.36
2019-03-03T03:45:27.743Z,100731.48
2019-03-03T03:47:58.037Z,100736.91
2019-03-03T03:50:37.244Z,100733.34
2019-03-03T03:53:23.808Z,100737.19
2019-03-03T03:58:52.251Z,100726.46
2019-03-03T04:01:22.528Z,100724.92
2019-03-03T04:03:52.753Z,100720.15
2019-03-03T04:06:32.402Z,100721.36
2019-03-03T04:09:08.537Z,100722.48
2019-03-03T04:11:38.803Z,100724.69
2019-03-03T04:14:17.939Z,100722.07
2019-03-03T04:16:48.210Z,100718.50
2019-03-03T04:19:23.999Z,100715.84
2019-03-03T04:21:57.227Z,100709.52
2019-03-03T04:24:42.253Z,100706.09
2019-03-03T04:27:18.068Z,100703.86
2019-03-03T04:29:48.291Z,100700.99
2019-03-03T04:32:23.832Z,100697.01
2019-03-03T04:34:54.102Z,100698.60
2019-03-03T04:37:33.005Z,100706.09
2019-03-03T04:40:12.376Z,100702.64
2019-03-03T04:42:42.580Z,100698.33
2019-03-03T04:45:29.924Z,100700.80
2019-03-03T04:48:03.041Z,100694.58
2019-03-03T04:50:33.291Z,100697.15
2019-03-03T04:53:06.389Z,100679.23
2019-03-03T04:55:51.583Z,100679.55
2019-03-03T04:58:34.105Z,100677.95
2019-03-03T05:01:10.096Z,100672.11
2019-03-03T05:03:46.287Z,100671.08
2019-03-03T05:06:22.581Z,100667.48
2019-03-03T05:08:52.860Z,100664.20
2019-03-03T05:11:51.880Z,100653.48
2019-03-03T05:14:22.119Z,100657.84
2019-03-03T05:16:52.251Z,100658.92
2019-03-03T05:19:21.541Z,100657.56
2019-03-03T05:21:50.191Z,100654.61
2019-03-03T05:24:18.884Z,100657.97
2019-03-03T05:26:47.413Z,100655.02
2019-03-03T05:29:15.943Z,100649.74
2019-03-03T05:31:44.561Z,100652.64
2019-03-03T05:34:13.073Z,100642.64
2019-03-03T05:36:41.609Z,100647.35
2019-03-03T05:39:10.172Z,100637.71
2019-03-03T05:41:38.757Z,100640.90
2019-03-03T05:44:07.323Z,100615.53
2019-03-03T05:46:35.940Z,100628.45
2019-03-03T05:49:05.293Z,100630.78
2019-03-03T05:51:33.867Z,100623.02
2019-03-03T05:54:02.408Z,100629.34
2019-03-03T05:56:31.017Z,100626.06
2019-03-03T05:59:00.608Z,100618.47
2019-03-03T06:01:29.200Z,100626.47
2019-03-03T06:03:57.804Z,100623.10
2019-03-03T06:06:26.244Z,100621.19
2019-03-03T06:08:54.811Z,100621.45
2019-03-03T06:11:23.451Z,100614.39
2019-03-03T06:13:52.148Z,100610.17
2019-03-03T06:16:20.748Z,100614.25
2019-03-03T06:18:49.328Z,100607.70
2019-03-03T06:21:17.951Z,100617.53
2019-03-03T06:23:46.549Z,100615.44
2019-03-03T06:26:15.204Z,100624.41
2019-03-03T06:28:43.720Z,100624.70
2019-03-03T06:31:12.368Z,100622.95
2019-03-03T06:33:40.830Z,100628.80
2019-03-03T06:36:09.372Z,100617.11
2019-03-03T06:38:38.015Z,100614.81
2019-03-03T06:41:06.676Z,100614.58
2019-03-03T06:43:35.267Z,100605.31
2019-03-03T06:46:03.785Z,100623.90
2019-03-03T06:48:32.313Z,100613.84
2019-03-03T06:51:00.919Z,100615.38
2019-03-03T06:53:29.566Z,100621.69
2019-03-03T06:55:58.099Z,100620.80
2019-03-03T06:58:26.950Z,100611.05
2019-03-03T07:00:55.526Z,100620.80
2019-03-03T07:03:24.108Z,100619.28
2019-03-03T07:05:52.771Z,100615.27
2019-03-03T07:08:21.359Z,100622.00
2019-03-03T07:10:49.974Z,100621.44
2019-03-03T07:13:18.541Z,100630.06
2019-03-03T07:15:47.180Z,100610.89
2019-03-03T07:18:15.782Z,100627.19
2019-03-03T07:20:44.404Z,100621.09
2019-03-03T07:23:12.963Z,100622.63
2019-03-03T07:25:41.558Z,100621.03
2019-03-03T07:28:10.100Z,100617.20
2019-03-03T07:30:38.619Z,100617.01
2019-03-03T07:33:08.831Z,100613.99
2019-03-03T07:35:37.415Z,100608.77
2019-03-03T07:38:06.193Z,100613.17
2019-03-03T07:40:34.702Z,100614.38
2019-03-03T07:43:03.304Z,100610.20
2019-03-03T07:45:32.051Z,100617.00
2019-03-03T07:48:01.148Z,100618.33
2019-03-03T07:50:29.704Z,100612.09
2019-03-03T07:52:58.295Z,100612.33
2019-03-03T07:55:26.912Z,100609.70
2019-03-03T07:57:55.356Z,100610.90
2019-03-03T08:00:23.996Z,100607.81
2019-03-03T08:02:52.576Z,100613.92
2019-03-03T08:05:21.155Z,100617.13
2019-03-03T08:07:49.694Z,100623.28
2019-03-03T08:10:18.439Z,100622.55
2019-03-03T08:12:47.030Z,100621.50
2019-03-03T08:15:17.027Z,100627.03
2019-03-03T08:17:45.751Z,100619.13
2019-03-03T08:20:15.333Z,100631.49
2019-03-03T08:22:43.959Z,100630.61
2019-03-03T08:25:13.408Z,100627.89
2019-03-03T08:27:42.157Z,100632.28
2019-03-03T08:30:17.984Z,100626.06
2019-03-03T08:32:46.793Z,100638.66
2019-03-03T08:35:21.001Z,100630.42
2019-03-03T08:37:49.574Z,100619.75
2019-03-03T08:40:18.169Z,100618.72
2019-03-03T08:42:48.337Z,100632.05
2019-03-03T08:45:18.590Z,100621.11
2019-03-03T08:47:53.263Z,100612.49
2019-03-03T08:50:26.761Z,100621.98
2019-03-03T08:53:05.843Z,100620.33
2019-03-03T08:55:36.115Z,100623.17
2019-03-03T08:58:18.217Z,100618.24
2019-03-03T09:00:51.475Z,100631.66
2019-03-03T09:03:33.485Z,100607.86
2019-03-03T09:06:03.698Z,100615.83
2019-03-03T09:08:42.612Z,100622.78
2019-03-03T09:11:15.645Z,100617.92
2019-03-03T09:13:57.988Z,100610.39
2019-03-03T09:16:31.229Z,100628.92
2019-03-03T09:19:01.379Z,100614.08
2019-03-03T09:21:31.632Z,100619.84
2019-03-03T09:24:16.770Z,100613.05
2019-03-03T09:26:46.924Z,100610.34
2019-03-03T09:29:20.323Z,100610.58
2019-03-03T09:31:53.584Z,100609.54
2019-03-03T09:34:36.039Z,100603.94
2019-03-03T09:37:09.415Z,100609.92
2019-03-03T09:39:42.834Z,100605.47
2019-03-03T09:42:27.818Z,100610.10
2019-03-03T09:45:06.895Z,100603.23
2019-03-03T09:47:37.164Z,100601.31
2019-03-03T09:50:26.712Z,100608.66
2019-03-03T09:53:03.251Z,100602.67
2019-03-03T09:55:39.794Z,100600.84
2019-03-03T09:58:16.004Z,100607.77
2019-03-03T10:00:46.171Z,100611.38
2019-03-03T10:03:28.684Z,100599.95
2019-03-03T10:06:15.468Z,100597.89
2019-03-03T10:09:03.774Z,100592.52
2019-03-03T10:11:52.267Z,100595.41
2019-03-03T10:14:28.457Z,100596.30
2019-03-03T10:16:58.678Z,100601.62
2019-03-03T10:19:40.986Z,100599.56
2019-03-03T10:22:20.364Z,100601.01
2019-03-03T10:24:50.589Z,100608.98
2019-03-03T10:27:20.795Z,100601.95
2019-03-03T10:29:51.044Z,100597.97
2019-03-03T10:32:33.289Z,100599.41
2019-03-03T10:35:09.222Z,100610.27
2019-03-03T10:37:39.686Z,100603.55
2019-03-03T10:40:28.876Z,100593.64
2019-03-03T10:42:59.109Z,100591.10
2019-03-03T10:45:38.404Z,100597.80
2019-03-03T10:48:08.729Z,100591.16
2019-03-03T10:50:54.370Z,100590.03
2019-03-03T10:53:24.578Z,100587.82
2019-03-03T10:56:04.064Z,100590.52
2019-03-03T10:58:52.681Z,100596.83
2019-03-03T11:01:39.456Z,100587.96
2019-03-03T11:04:12.462Z,100580.30
2019-03-03T11:06:42.734Z,100586.61
2019-03-03T11:09:21.060Z,100598.59
2019-03-03T11:11:51.342Z,100590.89
2019-03-03T11:14:21.734Z,100585.84
2019-03-03T11:16:55.062Z,100587.13
2019-03-03T11:19:28.177Z,100585.77
2019-03-03T11:22:16.464Z,100581.53
2019-03-03T11:24:46.749Z,100574.08
2019-03-03T11:27:32.051Z,100569.61
2019-03-03T11:30:03.308Z,100571.70
2019-03-03T11:32:39.037Z,100558.91
2019-03-03T11:35:21.882Z,100556.66
2019-03-03T11:37:54.958Z,100561.16
2019-03-03T11:40:31.014Z,100553.62
2019-03-03T11:45:27.535Z,100540.09
2019-03-03T11:48:04.484Z,100545.17
2019-03-03T11:50:37.617Z,100539.18
2019-03-03T11:53:23.680Z,100534.69
2019-03-03T11:56:09.098Z,100534.95
2019-03-03T11:58:55.602Z,100540.68
2019-03-03T12:01:25.740Z,100541.08
2019-03-03T12:04:12.593Z,100526.92
2019-03-03T12:06:42.800Z,100528.52
2019-03-03T12:09:13.545Z,100528.08
2019-03-03T12:12:00.430Z,100527.16
2019-03-03T12:14:33.638Z,100532.61
2019-03-03T12:17:22.013Z,100512.58
2019-03-03T12:19:54.904Z,100504.45
2019-03-03T12:22:25.177Z,100507.44
2019-03-03T12:25:11.677Z,100506.54
2019-03-03T12:27:54.128Z,100503.08
2019-03-03T12:30:28.609Z,100513.39
2019-03-03T12:32:59.039Z,100509.86
2019-03-03T12:35:29.268Z,100505.02
2019-03-03T12:37:59.583Z,100503.38
2019-03-03T12:40:32.502Z,100501.17
2019-03-03T12:43:03.754Z,100482.14
2019-03-03T12:45:50.636Z,100490.84
2019-03-03T12:48:37.367Z,100493.91
2019-03-03T12:51:07.652Z,100500.36
2019-03-03T12:53:52.978Z,100490.84
2019-03-03T12:56:25.866Z,100490.80
2019-03-03T12:59:04.936Z,100485.64
2019-03-03T13:01:35.098Z,100486.66
2019-03-03T13:04:05.612Z,100483.00
2019-03-03T13:06:53.673Z,100477.48
2019-03-03T13:09:39.301Z,100480.77
2019-03-03T13:12:28.111Z,100468.27
2019-03-03T13:14:58.372Z,100457.27
2019-03-03T13:17:34.267Z,100455.31
2019-03-03T13:20:20.915Z,100451.61
2019-03-03T13:22:56.580Z,100450.52
2019-03-03T13:25:35.934Z,100455.23
2019-03-03T13:28:09.052Z,100453.91
2019-03-03T13:30:54.267Z,100448.81
2019-03-03T13:33:36.629Z,100444.86
2019-03-03T13:36:23.555Z,100444.06
2019-03-03T13:38:56.773Z,100443.15
2019-03-03T13:41:45.363Z,100442.81
2019-03-03T13:44:13.989Z,100442.81
2019-03-03T13:46:42.504Z,100436.13
2019-03-03T13:49:11.178Z,100431.78
2019-03-03T13:51:39.792Z,100432.58
2019-03-03T13:54:08.492Z,100430.69
2019-03-03T13:56:37.072Z,100439.25
2019-03-03T13:59:06.126Z,100428.55
2019-03-03T14:01:34.824Z,100433.30
2019-03-03T14:04:03.548Z,100422.56
2019-03-03T14:06:31.983Z,100420.35
2019-03-03T14:09:00.610Z,100413.66
2019-03-03T14:11:30.302Z,100401.20
2019-03-03T14:13:58.958Z,100399.42
2019-03-03T14:16:27.646Z,100406.77
2019-03-03T14:18:56.486Z,100378.52
2019-03-03T14:21:25.105Z,100378.52
2019-03-03T14:23:53.744Z,100378.94
2019-03-03T14:26:22.329Z,100381.72
2019-03-03T14:28:50.944Z,100375.72
2019-03-03T14:31:19.562Z,100373.75
2019-03-03T14:33:48.092Z,100376.23
2019-03-03T14:36:16.752Z,100370.39
2019-03-03T14:38:45.313Z,100361.56
2019-03-03T14:41:13.977Z,100360.58
2019-03-03T14:43:42.782Z,100361.27
2019-03-03T14:46:11.461Z,100355.83
2019-03-03T14:48:40.786Z,100350.50
2019-03-03T14:51:09.399Z,100338.95
2019-03-03T14:53:38.023Z,100350.73
2019-03-03T14:56:06.559Z,100330.15
2019-03-03T14:58:35.261Z,100346.95
2019-03-03T15:01:03.934Z,100335.73
2019-03-03T15:03:32.634Z,100327.30
2019-03-03T15:06:01.256Z,100329.02
2019-03-03T15:08:29.907Z,100326.48
2019-03-03T15:10:58.595Z,100323.41
2019-03-03T15:13:27.206Z,100317.57
2019-03-03T15:15:55.883Z,100308.59
2019-03-03T15:18:24.437Z,100307.75
2019-03-03T15:20:53.078Z,100308.17
2019-03-03T15:23:21.742Z,100308.28
2019-03-03T15:25:50.270Z,100301.74
2019-03-03T15:28:19.062Z,100295.03
2019-03-03T15:30:47.587Z,100290.07
2019-03-03T15:33:16.497Z,100278.73
2019-03-03T15:35:45.157Z,100270.36
2019-03-03T15:38:13.770Z,100265.88
2019-03-03T15:40:42.312Z,100259.18
2019-03-03T15:43:11.095Z,100262.23
2019-03-03T15:45:39.749Z,100262.69
2019-03-03T15:48:08.417Z,100253.76
2019-03-03T15:50:37.016Z,100255.69
2019-03-03T15:53:05.648Z,100246.14
2019-03-03T15:55:34.248Z,100249.80
2019-03-03T15:58:02.946Z,100244.56
2019-03-03T16:00:42.285Z,100239.34
2019-03-03T16:03:11.043Z,100230.98
2019-03-03T16:05:39.631Z,100227.80
2019-03-03T16:08:08.256Z,100210.68
2019-03-03T16:10:36.739Z,100212.30
2019-03-03T16:13:05.613Z,100216.48
2019-03-03T16:15:34.208Z,100202.43
2019-03-03T16:18:02.823Z,100206.61
2019-03-03T16:20:31.409Z,100194.70
2019-03-03T16:23:00.055Z,100190.19
2019-03-03T16:25:29.202Z,100197.22
2019-03-03T16:27:57.682Z,100181.46
2019-03-03T16:30:26.748Z,100186.77
2019-03-03T16:32:55.413Z,100171.00
2019-03-03T16:35:24.027Z,100172.72
2019-03-03T16:37:52.626Z,100169.09
2019-03-03T16:40:25.252Z,100154.70
2019-03-03T16:42:53.998Z,100163.20
2019-03-03T16:45:22.740Z,100148.92
2019-03-03T16:47:51.320Z,100148.92
2019-03-03T16:50:24.132Z,100152.51
2019-03-03T16:52:52.803Z,100153.19
2019-03-03T16:55:22.428Z,100152.09
2019-03-03T16:57:51.175Z,100147.56
2019-03-03T17:00:24.461Z,100145.19
2019-03-03T17:02:53.364Z,100137.59
2019-03-03T17:05:26.635Z,100136.45
2019-03-03T17:07:55.427Z,100142.56
2019-03-03T17:10:24.018Z,100141.19
2019-03-03T17:12:52.648Z,100133.72
2019-03-03T17:15:25.373Z,100130.09
2019-03-03T17:17:54.075Z,100131.68
2019-03-03T17:20:22.690Z,100129.31
2019-03-03T17:22:51.202Z,100125.47
2019-03-03T17:25:25.525Z,100124.45
2019-03-03T17:27:54.256Z,100117.08
2019-03-03T17:30:27.537Z,100110.95
2019-03-03T17:32:56.338Z,100101.08
2019-03-03T17:35:24.990Z,100108.45
2019-03-03T17:37:53.582Z,100106.88
2019-03-03T17:40:26.087Z,100105.86
2019-03-03T17:42:54.747Z,100099.50
2019-03-03T17:45:23.975Z,100109.47
2019-03-03T17:47:52.864Z,100108.23
2019-03-03T17:50:26.134Z,100099.25
2019-03-03T17:52:54.730Z,100091.69
2019-03-03T17:55:23.466Z,100079.76
2019-03-03T17:57:52.152Z,100091.55
2019-03-03T18:00:32.840Z,100077.11
2019-03-03T18:03:01.473Z,100070.91
2019-03-03T18:05:30.307Z,100073.19
2019-03-03T18:07:59.017Z,100076.73
2019-03-03T18:10:27.630Z,100068.28
2019-03-03T18:12:56.235Z,100062.30
2019-03-03T18:15:24.866Z,100066.38
2019-03-03T18:17:53.416Z,100068.42
2019-03-03T18:20:22.545Z,100066.38
2019-03-03T18:22:51.383Z,100069.00
2019-03-03T18:25:21.474Z,100054.61
2019-03-03T18:27:50.312Z,100050.76
2019-03-03T18:30:23.767Z,100044.66
2019-03-03T18:32:52.498Z,100036.02
2019-03-03T18:35:21.235Z,100032.64
2019-03-03T18:37:49.923Z,100035.80
2019-03-03T18:40:20.338Z,100031.28
2019-03-03T18:42:49.576Z,100022.55
2019-03-03T18:45:23.141Z,100024.69
2019-03-03T18:47:51.690Z,100016.17
2019-03-03T18:50:24.685Z,100014.47
2019-03-03T18:52:53.318Z,100005.64
2019-03-03T18:55:21.914Z,100007.45
2019-03-03T18:57:50.791Z,100000.41
2019-03-03T19:00:27.298Z,99993.95
2019-03-03T19:02:58.027Z,99997.46
2019-03-03T19:05:26.439Z,99979.88
2019-03-03T19:07:55.096Z,99979.66
2019-03-03T19:10:28.598Z,99989.73
2019-03-03T19:12:57.187Z,99972.27
2019-03-03T19:15:25.883Z,99965.70
2019-03-03T19:17:54.838Z,99959.58
2019-03-03T19:20:23.655Z,99945.99
2019-03-03T19:22:52.406Z,99945.99
2019-03-03T19:25:21.195Z,99949.34
2019-03-03T19:27:49.920Z,99944.00
2019-03-03T19:30:28.711Z,99941.61
2019-03-03T19:33:15.842Z,99934.17
2019-03-03T19:35:44.562Z,99934.67
2019-03-03T19:38:13.196Z,99931.27
2019-03-03T19:40:41.841Z,99930.81
2019-03-03T19:43:10.507Z,99938.75
2019-03-03T19:45:50.603Z,99925.10
2019-03-03T19:48:19.188Z,99925.10
2019-03-03T19:50:47.789Z,99926.00
2019-03-03T19:53:16.522Z,99922.09
2019-03-03T19:55:45.180Z,99909.84
2019-03-03T19:58:13.792Z,99916.87
2019-03-03T20:04:14.653Z,99910.04
2019-03-03T20:06:47.298Z,99908.54
2019-03-03T20:09:18.049Z,99909.11
2019-03-03T20:14:22.536Z,99894.69
2019-03-03T20:16:51.113Z,99892.75
2019-03-03T20:19:19.630Z,99875.12
2019-03-03T20:21:48.250Z,99875.12
2019-03-03T20:24:16.754Z,99853.98
2019-03-03T20:26:45.376Z,99864.63
2019-03-03T20:29:13.973Z,99870.78
2019-03-03T20:31:43.041Z,99877.34
2019-03-03T20:34:12.137Z,99872.25
2019-03-03T20:36:40.836Z,99868.71
2019-03-03T20:39:09.728Z,99847.65
2019-03-03T20:41:38.382Z,99851.11
2019-03-03T20:44:07.044Z,99829.77
2019-03-03T20:46:35.571Z,99832.75
2019-03-03T20:49:04.887Z,99830.52
2019-03-03T20:51:34.327Z,99847.50
2019-03-03T20:54:02.853Z,99833.23
2019-03-03T20:56:31.471Z,99836.25
2019-03-03T20:59:00.181Z,99837.58
2019-03-03T21:01:28.828Z,99823.58
2019-03-03T21:03:57.399Z,99820.03
2019-03-03T21:06:26.103Z,99827.23
2019-03-03T21:08:54.721Z,99825.84
2019-03-03T21:11:23.282Z,99823.97
2019-03-03T21:13:51.828Z,99835.76
2019-03-03T21:16:20.472Z,99829.42
2019-03-03T21:18:48.990Z,99836.37
2019-03-03T21:21:17.436Z,99826.84
2019-03-03T21:23:46.067Z,99800.98
2019-03-03T21:26:14.720Z,99779.94
2019-03-03T21:28:43.357Z,99788.11
2019-03-03T21:31:11.956Z,99789.11
2019-03-03T21:33:40.570Z,99791.84
2019-03-03T21:36:09.185Z,99777.86
2019-03-03T21:38:37.698Z,99789.64
2019-03-03T21:41:06.411Z,99801.64
2019-03-03T21:43:34.924Z,99785.30
2019-03-03T21:46:04.557Z,99771.47
2019-03-03T21:48:33.173Z,99773.16
2019-03-03T21:51:01.757Z,99762.41
2019-03-03T21:53:30.389Z,99778.11
2019-03-03T21:55:58.969Z,99764.56
2019-03-03T21:58:27.535Z,99747.39
2019-03-03T22:00:56.169Z,99756.97
2019-03-03T22:03:24.817Z,99731.73
2019-03-03T22:05:53.396Z,99727.91
2019-03-03T22:08:22.089Z,99717.86
2019-03-03T22:10:50.672Z,99721.66
2019-03-03T22:13:20.758Z,99713.13
2019-03-03T22:15:49.358Z,99706.81
2019-03-03T22:18:17.896Z,99694.28
2019-03-03T22:20:46.421Z,99673.86
2019-03-03T22:23:15.027Z,99673.66
2019-03-03T22:25:43.590Z,99678.02
2019-03-03T22:28:12.198Z,99662.39
2019-03-03T22:30:40.811Z,99652.92
2019-03-03T22:33:09.312Z,99610.58
2019-03-03T22:35:38.247Z,99628.36
2019-03-03T22:38:06.823Z,99589.23
2019-03-03T22:40:35.398Z,99596.83
2019-03-03T22:43:04.780Z,99593.16
2019-03-03T22:45:33.402Z,99586.78
2019-03-03T22:48:02.017Z,99578.34
2019-03-03T22:50:30.593Z,99588.58
2019-03-03T22:52:59.283Z,99546.73
2019-03-03T22:55:29.335Z,99541.08
2019-03-03T22:57:57.868Z,99539.19
2019-03-03T23:00:52.391Z,99543.44
2019-03-03T23:03:36.320Z,99541.86
2019-03-03T23:06:13.294Z,99545.37
2019-03-03T23:08:56.685Z,99555.41
2019-03-03T23:11:31.231Z,99553.70
2019-03-03T23:14:08.514Z,99550.80
2019-03-03T23:16:48.903Z,99569.81
2019-03-03T23:19:23.375Z,99566.94
2019-03-03T23:22:23.786Z,99555.32
2019-03-03T23:25:12.016Z,99567.88
2019-03-03T23:27:40.666Z,99574.67
2019-03-03T23:30:09.673Z,99580.56
2019-03-03T23:32:38.227Z,99577.05
2019-03-03T23:35:07.311Z,99584.03
2019-03-03T23:37:35.826Z,99577.69
2019-03-03T23:40:06.394Z,99579.54
2019-03-03T23:42:35.014Z,99565.43
2019-03-03T23:45:05.086Z,99565.06
2019-03-03T23:47:33.743Z,99552.71
2019-03-03T23:50:02.337Z,99552.47
2019-03-03T23:52:30.946Z,99558.63
2019-03-03T23:54:59.481Z,99552.39
2019-03-03T23:57:28.177Z,99554.70
2019-03-03T23:59:56.765Z,99547.95
